LSZS/SMV METAR and TAF weather

Enter ICAO airport designator
Station Type Date Time Source
LSZS METAR 2021/04/17 02:50 UTC NOAA

LSZS 170250Z AUTO VRB01KT CAVOK M11/M12 Q1015


Station Type Date Time Source
LSZS Decoded METAR 2021/04/17 02:50 UTC NOAA

Station name not available
Apr 16, 2021 - 10:50 PM EDT / 2021.04.17 0250 UTC
Wind: Variable at 1 MPH (1 KT):0
Visibility: greater than 7 mile(s):0
Temperature: 12 F (-11 C)
Dew Point: 10 F (-12 C)
Relative Humidity: 92%
Pressure (altimeter): 29.97 in. Hg (1015 hPa)
ob: LSZS 170250Z AUTO VRB01KT CAVOK M11/M12 Q1015
cycle: 3

Station Type Date Time Source
LSZS TAF 2014/12/22 20:03 UTC NOAA

TAF
AMD LSZS 222054Z 2220/2224 CNL

Example: see airport list